sensor_id;sensor_type;location;lat;lon;timestamp;P1;durP1;ratioP1;P2;durP2;ratioP2
39996;SDS011;25688;52.338;21.072;2024-03-02T00:00:23;69.95;;;33.38;;
39996;SDS011;25688;52.338;21.072;2024-03-02T00:02:50;69.70;;;33.80;;
39996;SDS011;25688;52.338;21.072;2024-03-02T00:05:20;68.30;;;32.58;;
39996;SDS011;25688;52.338;21.072;2024-03-02T00:10:35;72.65;;;33.50;;
39996;SDS011;25688;52.338;21.072;2024-03-02T00:13:05;66.85;;;32.60;;
39996;SDS011;25688;52.338;21.072;2024-03-02T00:18:40;63.95;;;31.15;;
39996;SDS011;25688;52.338;21.072;2024-03-02T00:21:05;68.57;;;31.52;;
39996;SDS011;25688;52.338;21.072;2024-03-02T00:23:36;69.72;;;33.63;;
39996;SDS011;25688;52.338;21.072;2024-03-02T00:26:03;70.25;;;33.75;;
39996;SDS011;25688;52.338;21.072;2024-03-02T00:28:31;70.20;;;32.80;;
39996;SDS011;25688;52.338;21.072;2024-03-02T00:31:04;67.80;;;33.60;;
39996;SDS011;25688;52.338;21.072;2024-03-02T00:33:42;70.80;;;32.17;;
39996;SDS011;25688;52.338;21.072;2024-03-02T00:36:09;63.25;;;29.75;;
39996;SDS011;25688;52.338;21.072;2024-03-02T00:38:54;66.35;;;32.90;;
39996;SDS011;25688;52.338;21.072;2024-03-02T00:41:22;67.25;;;32.28;;
39996;SDS011;25688;52.338;21.072;2024-03-02T00:44:09;68.85;;;31.90;;
39996;SDS011;25688;52.338;21.072;2024-03-02T00:46:39;68.60;;;34.97;;
39996;SDS011;25688;52.338;21.072;2024-03-02T00:51:51;71.35;;;32.35;;
39996;SDS011;25688;52.338;21.072;2024-03-02T00:54:21;71.15;;;33.15;;
39996;SDS011;25688;52.338;21.072;2024-03-02T00:56:49;73.75;;;32.15;;
39996;SDS011;25688;52.338;21.072;2024-03-02T00:59:16;69.40;;;33.45;;
39996;SDS011;25688;52.338;21.072;2024-03-02T01:01:42;69.43;;;32.90;;
39996;SDS011;25688;52.338;21.072;2024-03-02T01:04:08;73.18;;;34.22;;
39996;SDS011;25688;52.338;21.072;2024-03-02T01:06:34;71.60;;;34.00;;
39996;SDS011;25688;52.338;21.072;2024-03-02T01:09:01;69.82;;;33.97;;
39996;SDS011;25688;52.338;21.072;2024-03-02T01:11:27;71.18;;;34.83;;
39996;SDS011;25688;52.338;21.072;2024-03-02T01:13:53;75.20;;;36.63;;
39996;SDS011;25688;52.338;21.072;2024-03-02T01:16:19;75.72;;;34.72;;
39996;SDS011;25688;52.338;21.072;2024-03-02T01:18:45;73.93;;;33.40;;
39996;SDS011;25688;52.338;21.072;2024-03-02T01:21:11;77.47;;;34.80;;
39996;SDS011;25688;52.338;21.072;2024-03-02T01:23:37;70.68;;;32.63;;
39996;SDS011;25688;52.338;21.072;2024-03-02T01:26:03;82.95;;;34.20;;
39996;SDS011;25688;52.338;21.072;2024-03-02T01:28:28;71.55;;;34.58;;
39996;SDS011;25688;52.338;21.072;2024-03-02T01:30:54;73.03;;;33.13;;
39996;SDS011;25688;52.338;21.072;2024-03-02T01:33:21;78.93;;;34.50;;
39996;SDS011;25688;52.338;21.072;2024-03-02T01:35:46;63.17;;;30.98;;
39996;SDS011;25688;52.338;21.072;2024-03-02T01:38:12;72.13;;;34.60;;
39996;SDS011;25688;52.338;21.072;2024-03-02T01:40:38;66.80;;;33.10;;
39996;SDS011;25688;52.338;21.072;2024-03-02T01:43:05;66.70;;;30.58;;
39996;SDS011;25688;52.338;21.072;2024-03-02T01:45:33;68.13;;;33.30;;
39996;SDS011;25688;52.338;21.072;2024-03-02T01:48:03;63.53;;;29.90;;
39996;SDS011;25688;52.338;21.072;2024-03-02T01:50:32;66.55;;;32.10;;
39996;SDS011;25688;52.338;21.072;2024-03-02T01:53:02;67.53;;;33.87;;
39996;SDS011;25688;52.338;21.072;2024-03-02T01:55:28;61.67;;;31.38;;
39996;SDS011;25688;52.338;21.072;2024-03-02T01:58:19;67.28;;;30.20;;
39996;SDS011;25688;52.338;21.072;2024-03-02T02:01:27;63.83;;;30.38;;
39996;SDS011;25688;52.338;21.072;2024-03-02T02:03:53;69.80;;;33.28;;
39996;SDS011;25688;52.338;21.072;2024-03-02T02:06:18;64.18;;;30.20;;
39996;SDS011;25688;52.338;21.072;2024-03-02T02:08:44;64.82;;;32.25;;
39996;SDS011;25688;52.338;21.072;2024-03-02T02:11:14;70.82;;;32.28;;
39996;SDS011;25688;52.338;21.072;2024-03-02T02:13:41;64.03;;;30.33;;
39996;SDS011;25688;52.338;21.072;2024-03-02T02:16:07;67.70;;;30.95;;
39996;SDS011;25688;52.338;21.072;2024-03-02T02:18:33;67.43;;;30.40;;
39996;SDS011;25688;52.338;21.072;2024-03-02T02:21:00;67.18;;;32.75;;
39996;SDS011;25688;52.338;21.072;2024-03-02T02:23:26;70.80;;;31.33;;
39996;SDS011;25688;52.338;21.072;2024-03-02T02:25:51;64.20;;;29.73;;
39996;SDS011;25688;52.338;21.072;2024-03-02T02:28:17;66.70;;;29.13;;
39996;SDS011;25688;52.338;21.072;2024-03-02T02:30:43;60.33;;;30.27;;
39996;SDS011;25688;52.338;21.072;2024-03-02T02:33:09;65.05;;;28.63;;
39996;SDS011;25688;52.338;21.072;2024-03-02T02:35:34;65.20;;;29.00;;
39996;SDS011;25688;52.338;21.072;2024-03-02T02:38:00;65.90;;;29.45;;
39996;SDS011;25688;52.338;21.072;2024-03-02T02:40:28;60.53;;;28.70;;
39996;SDS011;25688;52.338;21.072;2024-03-02T02:42:57;60.95;;;28.77;;
39996;SDS011;25688;52.338;21.072;2024-03-02T02:45:24;60.95;;;29.25;;
39996;SDS011;25688;52.338;21.072;2024-03-02T02:47:50;61.45;;;28.75;;
39996;SDS011;25688;52.338;21.072;2024-03-02T02:50:15;63.08;;;30.23;;
39996;SDS011;25688;52.338;21.072;2024-03-02T02:52:42;59.22;;;29.58;;
39996;SDS011;25688;52.338;21.072;2024-03-02T02:55:09;56.47;;;27.50;;
39996;SDS011;25688;52.338;21.072;2024-03-02T02:57:35;68.78;;;32.10;;
39996;SDS011;25688;52.338;21.072;2024-03-02T03:00:06;59.33;;;28.85;;
39996;SDS011;25688;52.338;21.072;2024-03-02T03:02:39;65.57;;;31.48;;
39996;SDS011;25688;52.338;21.072;2024-03-02T03:05:09;65.43;;;29.60;;
39996;SDS011;25688;52.338;21.072;2024-03-02T03:07:35;59.25;;;28.52;;
39996;SDS011;25688;52.338;21.072;2024-03-02T03:10:02;63.80;;;29.63;;
39996;SDS011;25688;52.338;21.072;2024-03-02T03:12:29;56.00;;;27.67;;
39996;SDS011;25688;52.338;21.072;2024-03-02T03:14:56;65.53;;;28.77;;
39996;SDS011;25688;52.338;21.072;2024-03-02T03:17:22;64.95;;;31.25;;
39996;SDS011;25688;52.338;21.072;2024-03-02T03:19:48;63.38;;;30.80;;
39996;SDS011;25688;52.338;21.072;2024-03-02T03:22:15;68.82;;;31.73;;
39996;SDS011;25688;52.338;21.072;2024-03-02T03:24:41;66.97;;;30.58;;
39996;SDS011;25688;52.338;21.072;2024-03-02T03:27:06;61.65;;;31.20;;
39996;SDS011;25688;52.338;21.072;2024-03-02T03:29:32;64.40;;;29.58;;
39996;SDS011;25688;52.338;21.072;2024-03-02T03:32:07;64.30;;;32.08;;
39996;SDS011;25688;52.338;21.072;2024-03-02T03:37:54;70.53;;;32.88;;
39996;SDS011;25688;52.338;21.072;2024-03-02T03:40:20;73.28;;;34.25;;
39996;SDS011;25688;52.338;21.072;2024-03-02T03:42:45;74.95;;;33.58;;
39996;SDS011;25688;52.338;21.072;2024-03-02T03:45:11;73.10;;;33.13;;
39996;SDS011;25688;52.338;21.072;2024-03-02T03:47:37;72.35;;;32.83;;
39996;SDS011;25688;52.338;21.072;2024-03-02T03:50:03;65.57;;;32.13;;
39996;SDS011;25688;52.338;21.072;2024-03-02T03:52:32;75.85;;;34.10;;
39996;SDS011;25688;52.338;21.072;2024-03-02T03:54:58;67.07;;;30.95;;
39996;SDS011;25688;52.338;21.072;2024-03-02T03:57:25;69.82;;;31.50;;
39996;SDS011;25688;52.338;21.072;2024-03-02T03:59:51;65.90;;;30.92;;
39996;SDS011;25688;52.338;21.072;2024-03-02T04:02:17;74.38;;;32.35;;
39996;SDS011;25688;52.338;21.072;2024-03-02T04:04:43;72.00;;;31.20;;
39996;SDS011;25688;52.338;21.072;2024-03-02T04:07:09;71.13;;;31.15;;
39996;SDS011;25688;52.338;21.072;2024-03-02T04:09:35;68.70;;;31.05;;
39996;SDS011;25688;52.338;21.072;2024-03-02T04:12:00;72.72;;;31.90;;
39996;SDS011;25688;52.338;21.072;2024-03-02T04:14:26;71.00;;;33.22;;
39996;SDS011;25688;52.338;21.072;2024-03-02T04:16:52;72.93;;;32.17;;
39996;SDS011;25688;52.338;21.072;2024-03-02T04:19:18;79.13;;;34.92;;
39996;SDS011;25688;52.338;21.072;2024-03-02T04:21:43;74.38;;;32.63;;
39996;SDS011;25688;52.338;21.072;2024-03-02T04:24:09;70.90;;;33.13;;
39996;SDS011;25688;52.338;21.072;2024-03-02T04:26:35;76.90;;;34.15;;
39996;SDS011;25688;52.338;21.072;2024-03-02T04:29:01;75.10;;;33.75;;
39996;SDS011;25688;52.338;21.072;2024-03-02T04:31:27;67.45;;;33.83;;
39996;SDS011;25688;52.338;21.072;2024-03-02T04:33:52;68.28;;;30.42;;
39996;SDS011;25688;52.338;21.072;2024-03-02T04:36:19;76.63;;;33.85;;
39996;SDS011;25688;52.338;21.072;2024-03-02T04:38:49;69.00;;;31.05;;
39996;SDS011;25688;52.338;21.072;2024-03-02T04:41:15;65.05;;;30.75;;
39996;SDS011;25688;52.338;21.072;2024-03-02T04:43:40;74.55;;;33.55;;
39996;SDS011;25688;52.338;21.072;2024-03-02T04:46:06;70.55;;;31.88;;
39996;SDS011;25688;52.338;21.072;2024-03-02T04:48:33;72.63;;;31.75;;
39996;SDS011;25688;52.338;21.072;2024-03-02T04:50:59;68.05;;;32.17;;
39996;SDS011;25688;52.338;21.072;2024-03-02T04:53:25;68.43;;;31.10;;
39996;SDS011;25688;52.338;21.072;2024-03-02T04:55:50;84.25;;;35.22;;
39996;SDS011;25688;52.338;21.072;2024-03-02T04:58:19;75.72;;;34.88;;
39996;SDS011;25688;52.338;21.072;2024-03-02T05:00:45;69.65;;;30.38;;
39996;SDS011;25688;52.338;21.072;2024-03-02T05:03:13;71.07;;;32.05;;
39996;SDS011;25688;52.338;21.072;2024-03-02T05:05:39;84.88;;;35.15;;
39996;SDS011;25688;52.338;21.072;2024-03-02T05:08:05;70.22;;;31.17;;
39996;SDS011;25688;52.338;21.072;2024-03-02T05:10:31;73.32;;;34.25;;
39996;SDS011;25688;52.338;21.072;2024-03-02T05:12:57;72.32;;;32.38;;
39996;SDS011;25688;52.338;21.072;2024-03-02T05:15:24;73.30;;;31.75;;
39996;SDS011;25688;52.338;21.072;2024-03-02T05:17:50;70.35;;;31.80;;
39996;SDS011;25688;52.338;21.072;2024-03-02T05:20:16;79.50;;;33.10;;
39996;SDS011;25688;52.338;21.072;2024-03-02T05:22:42;71.20;;;31.73;;
39996;SDS011;25688;52.338;21.072;2024-03-02T05:25:08;74.47;;;33.28;;
39996;SDS011;25688;52.338;21.072;2024-03-02T05:27:37;74.00;;;31.50;;
39996;SDS011;25688;52.338;21.072;2024-03-02T05:30:02;97.50;;;37.83;;
39996;SDS011;25688;52.338;21.072;2024-03-02T05:32:31;86.47;;;35.53;;
39996;SDS011;25688;52.338;21.072;2024-03-02T05:34:57;82.13;;;35.83;;
39996;SDS011;25688;52.338;21.072;2024-03-02T05:37:23;78.03;;;36.35;;
39996;SDS011;25688;52.338;21.072;2024-03-02T05:39:49;74.75;;;36.67;;
39996;SDS011;25688;52.338;21.072;2024-03-02T05:42:14;85.70;;;35.33;;
39996;SDS011;25688;52.338;21.072;2024-03-02T05:44:41;84.45;;;35.03;;
39996;SDS011;25688;52.338;21.072;2024-03-02T05:47:07;87.15;;;34.67;;
39996;SDS011;25688;52.338;21.072;2024-03-02T05:49:34;78.88;;;36.72;;
39996;SDS011;25688;52.338;21.072;2024-03-02T05:52:00;78.40;;;33.40;;
39996;SDS011;25688;52.338;21.072;2024-03-02T05:54:29;73.65;;;33.80;;
39996;SDS011;25688;52.338;21.072;2024-03-02T05:56:54;78.93;;;35.05;;
39996;SDS011;25688;52.338;21.072;2024-03-02T05:59:20;75.07;;;32.88;;
39996;SDS011;25688;52.338;21.072;2024-03-02T06:01:46;76.95;;;33.13;;
39996;SDS011;25688;52.338;21.072;2024-03-02T06:04:13;74.75;;;34.15;;
39996;SDS011;25688;52.338;21.072;2024-03-02T06:06:39;76.90;;;33.17;;
39996;SDS011;25688;52.338;21.072;2024-03-02T06:09:06;78.57;;;32.70;;
39996;SDS011;25688;52.338;21.072;2024-03-02T06:11:55;84.40;;;32.95;;
39996;SDS011;25688;52.338;21.072;2024-03-02T06:14:22;76.10;;;32.72;;
39996;SDS011;25688;52.338;21.072;2024-03-02T06:16:47;69.13;;;33.47;;
39996;SDS011;25688;52.338;21.072;2024-03-02T06:19:13;71.15;;;33.20;;
39996;SDS011;25688;52.338;21.072;2024-03-02T06:21:39;78.05;;;33.40;;
39996;SDS011;25688;52.338;21.072;2024-03-02T06:24:05;81.03;;;34.97;;
39996;SDS011;25688;52.338;21.072;2024-03-02T06:26:31;73.90;;;32.33;;
39996;SDS011;25688;52.338;21.072;2024-03-02T06:29:10;77.90;;;32.55;;
39996;SDS011;25688;52.338;21.072;2024-03-02T06:31:36;68.32;;;32.35;;
39996;SDS011;25688;52.338;21.072;2024-03-02T06:34:02;72.70;;;30.88;;
39996;SDS011;25688;52.338;21.072;2024-03-02T06:36:29;69.95;;;31.50;;
39996;SDS011;25688;52.338;21.072;2024-03-02T06:38:55;74.70;;;31.92;;
39996;SDS011;25688;52.338;21.072;2024-03-02T06:41:23;70.43;;;32.60;;
39996;SDS011;25688;52.338;21.072;2024-03-02T06:43:49;73.57;;;31.10;;
39996;SDS011;25688;52.338;21.072;2024-03-02T06:46:15;81.28;;;34.05;;
39996;SDS011;25688;52.338;21.072;2024-03-02T06:48:41;71.22;;;32.63;;
39996;SDS011;25688;52.338;21.072;2024-03-02T06:51:06;70.30;;;31.30;;
39996;SDS011;25688;52.338;21.072;2024-03-02T06:53:32;70.63;;;31.02;;
39996;SDS011;25688;52.338;21.072;2024-03-02T06:56:02;68.05;;;30.23;;
39996;SDS011;25688;52.338;21.072;2024-03-02T06:58:29;64.50;;;30.20;;
39996;SDS011;25688;52.338;21.072;2024-03-02T07:01:50;64.22;;;29.02;;
39996;SDS011;25688;52.338;21.072;2024-03-02T07:04:18;65.57;;;29.67;;
39996;SDS011;25688;52.338;21.072;2024-03-02T07:07:20;61.65;;;27.88;;
39996;SDS011;25688;52.338;21.072;2024-03-02T07:10:00;56.90;;;26.08;;
39996;SDS011;25688;52.338;21.072;2024-03-02T07:12:38;58.05;;;25.88;;
39996;SDS011;25688;52.338;21.072;2024-03-02T07:15:14;60.10;;;26.10;;
39996;SDS011;25688;52.338;21.072;2024-03-02T07:18:25;62.35;;;26.90;;
39996;SDS011;25688;52.338;21.072;2024-03-02T07:21:48;63.60;;;26.92;;
39996;SDS011;25688;52.338;21.072;2024-03-02T07:24:49;58.90;;;25.75;;
39996;SDS011;25688;52.338;21.072;2024-03-02T07:27:26;52.15;;;26.05;;
39996;SDS011;25688;52.338;21.072;2024-03-02T07:30:05;56.28;;;25.30;;
39996;SDS011;25688;52.338;21.072;2024-03-02T07:32:31;56.30;;;25.83;;
39996;SDS011;25688;52.338;21.072;2024-03-02T07:34:57;54.30;;;24.88;;
39996;SDS011;25688;52.338;21.072;2024-03-02T07:37:23;54.33;;;23.27;;
39996;SDS011;25688;52.338;21.072;2024-03-02T07:39:53;47.85;;;24.42;;
39996;SDS011;25688;52.338;21.072;2024-03-02T07:42:19;58.22;;;25.08;;
39996;SDS011;25688;52.338;21.072;2024-03-02T07:44:45;53.83;;;25.60;;
39996;SDS011;25688;52.338;21.072;2024-03-02T07:47:12;56.47;;;25.20;;
39996;SDS011;25688;52.338;21.072;2024-03-02T07:49:39;59.25;;;25.55;;
39996;SDS011;25688;52.338;21.072;2024-03-02T07:52:10;52.03;;;25.17;;
39996;SDS011;25688;52.338;21.072;2024-03-02T07:54:38;55.95;;;25.67;;
39996;SDS011;25688;52.338;21.072;2024-03-02T07:57:03;54.75;;;26.42;;
39996;SDS011;25688;52.338;21.072;2024-03-02T07:59:30;51.97;;;25.02;;
39996;SDS011;25688;52.338;21.072;2024-03-02T08:01:58;49.42;;;24.73;;
39996;SDS011;25688;52.338;21.072;2024-03-02T08:04:24;51.95;;;24.10;;
39996;SDS011;25688;52.338;21.072;2024-03-02T08:06:49;52.75;;;24.40;;
39996;SDS011;25688;52.338;21.072;2024-03-02T08:09:15;47.40;;;23.63;;
39996;SDS011;25688;52.338;21.072;2024-03-02T08:11:41;48.13;;;23.15;;
39996;SDS011;25688;52.338;21.072;2024-03-02T08:14:07;52.70;;;24.45;;
39996;SDS011;25688;52.338;21.072;2024-03-02T08:16:32;53.97;;;24.02;;
39996;SDS011;25688;52.338;21.072;2024-03-02T08:18:59;48.15;;;22.08;;
39996;SDS011;25688;52.338;21.072;2024-03-02T08:21:25;51.22;;;23.65;;
39996;SDS011;25688;52.338;21.072;2024-03-02T08:23:51;49.60;;;24.23;;
39996;SDS011;25688;52.338;21.072;2024-03-02T08:26:17;51.75;;;24.30;;
39996;SDS011;25688;52.338;21.072;2024-03-02T08:28:47;52.67;;;25.45;;
39996;SDS011;25688;52.338;21.072;2024-03-02T08:31:13;48.15;;;23.23;;
39996;SDS011;25688;52.338;21.072;2024-03-02T08:33:39;48.35;;;22.98;;
39996;SDS011;25688;52.338;21.072;2024-03-02T08:36:05;51.72;;;24.10;;
39996;SDS011;25688;52.338;21.072;2024-03-02T08:38:31;55.10;;;23.92;;
39996;SDS011;25688;52.338;21.072;2024-03-02T08:40:57;51.25;;;23.83;;
39996;SDS011;25688;52.338;21.072;2024-03-02T08:43:29;52.10;;;22.88;;
39996;SDS011;25688;52.338;21.072;2024-03-02T08:46:04;53.53;;;25.00;;
39996;SDS011;25688;52.338;21.072;2024-03-02T08:48:30;51.30;;;25.25;;
39996;SDS011;25688;52.338;21.072;2024-03-02T08:50:56;51.38;;;24.73;;
39996;SDS011;25688;52.338;21.072;2024-03-02T08:53:22;54.70;;;24.20;;
39996;SDS011;25688;52.338;21.072;2024-03-02T08:55:48;47.35;;;22.58;;
39996;SDS011;25688;52.338;21.072;2024-03-02T08:58:14;51.15;;;23.08;;
39996;SDS011;25688;52.338;21.072;2024-03-02T09:00:40;55.55;;;25.27;;
39996;SDS011;25688;52.338;21.072;2024-03-02T09:03:06;52.33;;;25.08;;
39996;SDS011;25688;52.338;21.072;2024-03-02T09:05:32;50.33;;;24.42;;
39996;SDS011;25688;52.338;21.072;2024-03-02T09:07:58;49.25;;;22.70;;
39996;SDS011;25688;52.338;21.072;2024-03-02T09:10:24;46.22;;;23.23;;
39996;SDS011;25688;52.338;21.072;2024-03-02T09:12:52;50.97;;;24.63;;
39996;SDS011;25688;52.338;21.072;2024-03-02T09:15:29;52.33;;;26.17;;
39996;SDS011;25688;52.338;21.072;2024-03-02T09:17:54;49.50;;;23.33;;
39996;SDS011;25688;52.338;21.072;2024-03-02T09:23:54;46.67;;;21.67;;
39996;SDS011;25688;52.338;21.072;2024-03-02T09:26:21;50.88;;;25.27;;
39996;SDS011;25688;52.338;21.072;2024-03-02T09:28:47;45.63;;;22.52;;
39996;SDS011;25688;52.338;21.072;2024-03-02T09:31:13;48.42;;;23.13;;
39996;SDS011;25688;52.338;21.072;2024-03-02T09:33:39;50.97;;;22.55;;
39996;SDS011;25688;52.338;21.072;2024-03-02T09:36:05;50.83;;;24.30;;
39996;SDS011;25688;52.338;21.072;2024-03-02T09:38:35;47.28;;;22.90;;
39996;SDS011;25688;52.338;21.072;2024-03-02T09:41:02;49.17;;;22.88;;
39996;SDS011;25688;52.338;21.072;2024-03-02T09:43:27;41.90;;;23.20;;
39996;SDS011;25688;52.338;21.072;2024-03-02T09:45:54;46.35;;;23.20;;
39996;SDS011;25688;52.338;21.072;2024-03-02T09:48:20;41.40;;;22.08;;
39996;SDS011;25688;52.338;21.072;2024-03-02T09:50:46;47.63;;;23.73;;
39996;SDS011;25688;52.338;21.072;2024-03-02T09:53:12;48.75;;;24.33;;
39996;SDS011;25688;52.338;21.072;2024-03-02T09:55:39;49.95;;;23.05;;
39996;SDS011;25688;52.338;21.072;2024-03-02T09:58:08;45.00;;;22.23;;
39996;SDS011;25688;52.338;21.072;2024-03-02T10:00:34;48.17;;;24.05;;
39996;SDS011;25688;52.338;21.072;2024-03-02T10:03:00;46.35;;;21.90;;
39996;SDS011;25688;52.338;21.072;2024-03-02T10:05:29;43.97;;;20.75;;
39996;SDS011;25688;52.338;21.072;2024-03-02T10:08:02;49.13;;;23.25;;
39996;SDS011;25688;52.338;21.072;2024-03-02T10:10:34;46.35;;;22.08;;
39996;SDS011;25688;52.338;21.072;2024-03-02T10:13:12;49.58;;;23.60;;
39996;SDS011;25688;52.338;21.072;2024-03-02T10:15:38;50.60;;;23.85;;
39996;SDS011;25688;52.338;21.072;2024-03-02T10:18:12;44.67;;;23.20;;
39996;SDS011;25688;52.338;21.072;2024-03-02T10:20:39;47.28;;;22.42;;
39996;SDS011;25688;52.338;21.072;2024-03-02T10:25:38;48.97;;;22.60;;
39996;SDS011;25688;52.338;21.072;2024-03-02T10:28:04;44.13;;;20.92;;
39996;SDS011;25688;52.338;21.072;2024-03-02T10:30:33;41.75;;;22.50;;
39996;SDS011;25688;52.338;21.072;2024-03-02T10:33:00;44.20;;;23.20;;
39996;SDS011;25688;52.338;21.072;2024-03-02T10:35:27;43.53;;;21.98;;
39996;SDS011;25688;52.338;21.072;2024-03-02T10:37:53;45.40;;;21.77;;
39996;SDS011;25688;52.338;21.072;2024-03-02T10:40:22;41.13;;;22.13;;
39996;SDS011;25688;52.338;21.072;2024-03-02T10:42:49;40.60;;;21.63;;
39996;SDS011;25688;52.338;21.072;2024-03-02T10:45:16;42.42;;;19.95;;
39996;SDS011;25688;52.338;21.072;2024-03-02T10:47:44;45.33;;;20.95;;
39996;SDS011;25688;52.338;21.072;2024-03-02T10:50:14;46.10;;;22.48;;
39996;SDS011;25688;52.338;21.072;2024-03-02T10:52:40;41.80;;;22.25;;
39996;SDS011;25688;52.338;21.072;2024-03-02T10:55:07;41.17;;;20.65;;
39996;SDS011;25688;52.338;21.072;2024-03-02T11:00:19;39.80;;;20.65;;
39996;SDS011;25688;52.338;21.072;2024-03-02T11:02:50;37.88;;;20.67;;
39996;SDS011;25688;52.338;21.072;2024-03-02T11:05:21;43.42;;;20.42;;
39996;SDS011;25688;52.338;21.072;2024-03-02T11:08:00;42.80;;;20.60;;
39996;SDS011;25688;52.338;21.072;2024-03-02T11:10:30;42.47;;;21.48;;
39996;SDS011;25688;52.338;21.072;2024-03-02T11:13:02;39.33;;;20.00;;
39996;SDS011;25688;52.338;21.072;2024-03-02T11:15:31;39.78;;;20.77;;
39996;SDS011;25688;52.338;21.072;2024-03-02T11:17:59;43.65;;;22.38;;
39996;SDS011;25688;52.338;21.072;2024-03-02T11:32:05;40.08;;;21.52;;
39996;SDS011;25688;52.338;21.072;2024-03-02T11:34:31;38.80;;;21.80;;
39996;SDS011;25688;52.338;21.072;2024-03-02T11:37:00;40.38;;;21.85;;
39996;SDS011;25688;52.338;21.072;2024-03-02T11:39:27;41.53;;;21.38;;
39996;SDS011;25688;52.338;21.072;2024-03-02T11:41:56;44.45;;;20.77;;
39996;SDS011;25688;52.338;21.072;2024-03-02T11:44:26;39.35;;;21.63;;
39996;SDS011;25688;52.338;21.072;2024-03-02T11:47:02;42.25;;;22.63;;
39996;SDS011;25688;52.338;21.072;2024-03-02T11:49:43;40.92;;;22.83;;
39996;SDS011;25688;52.338;21.072;2024-03-02T11:52:13;44.92;;;24.52;;
39996;SDS011;25688;52.338;21.072;2024-03-02T11:54:42;43.67;;;24.23;;
39996;SDS011;25688;52.338;21.072;2024-03-02T11:57:14;46.17;;;24.83;;
39996;SDS011;25688;52.338;21.072;2024-03-02T11:59:42;44.05;;;24.35;;
39996;SDS011;25688;52.338;21.072;2024-03-02T12:02:12;45.83;;;24.38;;
39996;SDS011;25688;52.338;21.072;2024-03-02T12:04:41;46.22;;;25.27;;
39996;SDS011;25688;52.338;21.072;2024-03-02T12:07:10;44.70;;;25.48;;
39996;SDS011;25688;52.338;21.072;2024-03-02T12:09:49;44.72;;;24.45;;
39996;SDS011;25688;52.338;21.072;2024-03-02T12:12:25;45.92;;;25.38;;
39996;SDS011;25688;52.338;21.072;2024-03-02T12:14:52;47.15;;;26.02;;
39996;SDS011;25688;52.338;21.072;2024-03-02T12:17:20;49.92;;;27.65;;
39996;SDS011;25688;52.338;21.072;2024-03-02T12:19:46;52.25;;;28.85;;
39996;SDS011;25688;52.338;21.072;2024-03-02T12:22:12;49.65;;;27.38;;
39996;SDS011;25688;52.338;21.072;2024-03-02T12:24:39;50.65;;;28.52;;
39996;SDS011;25688;52.338;21.072;2024-03-02T12:27:06;57.30;;;31.42;;
39996;SDS011;25688;52.338;21.072;2024-03-02T12:29:34;56.85;;;32.20;;
39996;SDS011;25688;52.338;21.072;2024-03-02T12:32:00;57.40;;;29.83;;
39996;SDS011;25688;52.338;21.072;2024-03-02T12:34:27;52.60;;;30.08;;
39996;SDS011;25688;52.338;21.072;2024-03-02T12:37:04;56.60;;;31.58;;
39996;SDS011;25688;52.338;21.072;2024-03-02T12:39:30;56.97;;;29.85;;
39996;SDS011;25688;52.338;21.072;2024-03-02T12:41:57;62.88;;;33.15;;
39996;SDS011;25688;52.338;21.072;2024-03-02T12:44:24;55.30;;;31.15;;
39996;SDS011;25688;52.338;21.072;2024-03-02T12:46:52;56.05;;;29.98;;
39996;SDS011;25688;52.338;21.072;2024-03-02T12:49:21;51.60;;;29.60;;
39996;SDS011;25688;52.338;21.072;2024-03-02T12:51:47;50.88;;;29.05;;
39996;SDS011;25688;52.338;21.072;2024-03-02T12:54:17;48.65;;;28.67;;
39996;SDS011;25688;52.338;21.072;2024-03-02T12:56:43;50.25;;;30.23;;
39996;SDS011;25688;52.338;21.072;2024-03-02T12:59:17;50.13;;;29.58;;
39996;SDS011;25688;52.338;21.072;2024-03-02T13:01:51;53.42;;;28.63;;
39996;SDS011;25688;52.338;21.072;2024-03-02T13:04:25;49.95;;;27.70;;
39996;SDS011;25688;52.338;21.072;2024-03-02T13:06:52;50.03;;;28.15;;
39996;SDS011;25688;52.338;21.072;2024-03-02T13:09:18;49.40;;;26.60;;
39996;SDS011;25688;52.338;21.072;2024-03-02T13:11:44;50.53;;;29.77;;
39996;SDS011;25688;52.338;21.072;2024-03-02T13:14:10;47.10;;;27.60;;
39996;SDS011;25688;52.338;21.072;2024-03-02T13:16:39;47.53;;;26.35;;
39996;SDS011;25688;52.338;21.072;2024-03-02T13:19:09;47.78;;;27.35;;
39996;SDS011;25688;52.338;21.072;2024-03-02T13:21:36;50.67;;;27.65;;
39996;SDS011;25688;52.338;21.072;2024-03-02T13:24:03;45.88;;;28.38;;
39996;SDS011;25688;52.338;21.072;2024-03-02T13:26:32;55.38;;;27.83;;
39996;SDS011;25688;52.338;21.072;2024-03-02T13:31:42;52.20;;;27.85;;
39996;SDS011;25688;52.338;21.072;2024-03-02T13:34:08;51.55;;;30.27;;
39996;SDS011;25688;52.338;21.072;2024-03-02T13:36:34;49.80;;;28.63;;
39996;SDS011;25688;52.338;21.072;2024-03-02T13:39:00;50.15;;;28.98;;
39996;SDS011;25688;52.338;21.072;2024-03-02T13:41:26;52.97;;;29.75;;
39996;SDS011;25688;52.338;21.072;2024-03-02T13:43:52;56.17;;;28.85;;
39996;SDS011;25688;52.338;21.072;2024-03-02T13:46:18;54.13;;;29.77;;
39996;SDS011;25688;52.338;21.072;2024-03-02T13:48:44;51.17;;;28.27;;
39996;SDS011;25688;52.338;21.072;2024-03-02T13:51:11;50.50;;;26.70;;
39996;SDS011;25688;52.338;21.072;2024-03-02T13:53:37;49.22;;;27.90;;
39996;SDS011;25688;52.338;21.072;2024-03-02T13:56:07;48.88;;;28.30;;
39996;SDS011;25688;52.338;21.072;2024-03-02T13:58:32;48.63;;;29.05;;
39996;SDS011;25688;52.338;21.072;2024-03-02T14:01:01;50.50;;;27.38;;
39996;SDS011;25688;52.338;21.072;2024-03-02T14:03:29;51.93;;;28.93;;
39996;SDS011;25688;52.338;21.072;2024-03-02T14:05:56;50.85;;;29.05;;
39996;SDS011;25688;52.338;21.072;2024-03-02T14:08:22;51.55;;;30.42;;
39996;SDS011;25688;52.338;21.072;2024-03-02T14:10:48;47.80;;;27.98;;
39996;SDS011;25688;52.338;21.072;2024-03-02T14:13:14;48.65;;;28.83;;
39996;SDS011;25688;52.338;21.072;2024-03-02T14:15:41;47.75;;;28.08;;
39996;SDS011;25688;52.338;21.072;2024-03-02T14:18:07;50.92;;;28.98;;
39996;SDS011;25688;52.338;21.072;2024-03-02T14:27:11;56.70;;;30.63;;
39996;SDS011;25688;52.338;21.072;2024-03-02T14:29:38;52.33;;;28.35;;
39996;SDS011;25688;52.338;21.072;2024-03-02T14:41:13;54.53;;;30.20;;
39996;SDS011;25688;52.338;21.072;2024-03-02T14:43:39;49.97;;;27.95;;
39996;SDS011;25688;52.338;21.072;2024-03-02T14:46:05;52.30;;;29.02;;
39996;SDS011;25688;52.338;21.072;2024-03-02T15:13:48;55.20;;;30.80;;
39996;SDS011;25688;52.338;21.072;2024-03-02T15:19:21;61.15;;;30.17;;
39996;SDS011;25688;52.338;21.072;2024-03-02T15:21:49;55.90;;;30.08;;
39996;SDS011;25688;52.338;21.072;2024-03-02T15:24:15;66.85;;;32.00;;
39996;SDS011;25688;52.338;21.072;2024-03-02T15:26:41;59.47;;;30.63;;
39996;SDS011;25688;52.338;21.072;2024-03-02T15:29:06;62.58;;;31.45;;
39996;SDS011;25688;52.338;21.072;2024-03-02T15:31:42;61.47;;;31.60;;
39996;SDS011;25688;52.338;21.072;2024-03-02T15:34:07;59.58;;;31.70;;